This is the latest recevied weather packets stored in our database for station/object SR9WXGR. If no packets are shown the sender has not sent any weather packets the latest 10 day(s).
| Time | Temp. | Humidity | Pressure | Rain* | Wind** | Luminosity | Snow |
|---|---|---|---|---|---|---|---|
| 1777674901 | 11.67° C | 59% | 985 hPa | - | - | - | - |
| 1777671301 | 12.78° C | 53% | 985 hPa | - | - | - | - |
| 1777667701 | 13.89° C | 48% | 985 hPa | - | - | - | - |
| 1777664101 | 13.89° C | 43% | 985 hPa | - | - | - | - |
| 1777660501 | 15° C | 38% | 985 hPa | - | - | - | - |
| 1777656900 | 16.67° C | 33% | 984 hPa | - | - | - | - |
| 1777653301 | 17.78° C | 31% | 984 hPa | - | - | - | - |
| 1777649701 | 18.89° C | 28% | 984 hPa | - | - | - | - |
| 1777646101 | 18.89° C | 28% | 985 hPa | - | - | - | - |
| 1777642501 | 18.89° C | 28% | 985 hPa | - | - | - | - |
| 1777638902 | 17.78° C | 29% | 986 hPa | - | - | - | - |
| 1777635301 | 16.67° C | 29% | 986 hPa | - | - | - | - |
| 1777631701 | 15.56° C | 31% | 986 hPa | - | - | - | - |
| 1777628101 | 13.89° C | 31% | 987 hPa | - | - | - | - |
| 1777624501 | 12.78° C | 29% | 987 hPa | - | - | - | - |
| 1777620901 | 11.67° C | 30% | 987 hPa | - | - | - | - |
| 1777617301 | 8.89° C | 39% | 987 hPa | - | - | - | - |
| 1777613701 | 6.67° C | 44% | 987 hPa | - | - | - | - |
| 1777610101 | 5° C | 47% | 987 hPa | - | - | - | - |
| 1777606501 | 5° C | 47% | 987 hPa | - | - | - | - |
| 1777602901 | 3.89° C | 46% | 987 hPa | - | - | - | - |
| 1777599301 | 3.89° C | 43% | 987 hPa | - | - | - | - |
| 1777595701 | 5° C | 40% | 987 hPa | - | - | - | - |
| 1777592101 | 5.56° C | 38% | 987 hPa | - | - | - | - |
| 1777588501 | 7.78° C | 33% | 987 hPa | - | - | - | - |
* Rain since midnight (hover to see other rain measurements)
** Current wind speed in m/s (hover to see current wind gust speed)